sensor_id;sensor_type;location;lat;lon;timestamp;temperature;humidity
52643;DHT22;38531;53.296;6.614;2023-04-24T00:01:17;10.80;99.90
52643;DHT22;38531;53.296;6.614;2023-04-24T00:03:44;10.70;99.90
52643;DHT22;38531;53.296;6.614;2023-04-24T00:06:10;11.00;99.90
52643;DHT22;38531;53.296;6.614;2023-04-24T00:08:36;10.80;99.90
52643;DHT22;38531;53.296;6.614;2023-04-24T00:11:01;11.00;99.90
52643;DHT22;38531;53.296;6.614;2023-04-24T00:13:27;10.80;99.90
52643;DHT22;38531;53.296;6.614;2023-04-24T00:15:54;10.80;99.90
52643;DHT22;38531;53.296;6.614;2023-04-24T00:18:20;10.80;99.90
52643;DHT22;38531;53.296;6.614;2023-04-24T00:20:46;10.80;99.90
52643;DHT22;38531;53.296;6.614;2023-04-24T00:23:12;11.00;99.90
52643;DHT22;38531;53.296;6.614;2023-04-24T00:25:38;10.80;99.90
52643;DHT22;38531;53.296;6.614;2023-04-24T00:28:04;10.80;99.90
52643;DHT22;38531;53.296;6.614;2023-04-24T00:30:30;11.30;99.90
52643;DHT22;38531;53.296;6.614;2023-04-24T00:32:56;10.80;99.90
52643;DHT22;38531;53.296;6.614;2023-04-24T00:35:22;10.80;99.90
52643;DHT22;38531;53.296;6.614;2023-04-24T00:37:48;10.80;99.90
52643;DHT22;38531;53.296;6.614;2023-04-24T00:40:15;11.50;99.90
52643;DHT22;38531;53.296;6.614;2023-04-24T00:42:41;10.80;99.90
52643;DHT22;38531;53.296;6.614;2023-04-24T00:45:07;10.80;99.90
52643;DHT22;38531;53.296;6.614;2023-04-24T00:47:33;10.80;99.90
52643;DHT22;38531;53.296;6.614;2023-04-24T00:50:02;10.80;99.90
52643;DHT22;38531;53.296;6.614;2023-04-24T00:52:28;10.70;99.90
52643;DHT22;38531;53.296;6.614;2023-04-24T00:54:56;10.60;99.90
52643;DHT22;38531;53.296;6.614;2023-04-24T00:57:22;10.60;99.90
52643;DHT22;38531;53.296;6.614;2023-04-24T00:59:49;10.60;99.90
52643;DHT22;38531;53.296;6.614;2023-04-24T01:02:15;10.70;99.90
52643;DHT22;38531;53.296;6.614;2023-04-24T01:04:41;10.50;99.90
52643;DHT22;38531;53.296;6.614;2023-04-24T01:07:08;10.80;99.90
52643;DHT22;38531;53.296;6.614;2023-04-24T01:09:37;10.50;99.90
52643;DHT22;38531;53.296;6.614;2023-04-24T01:12:04;10.40;99.90
52643;DHT22;38531;53.296;6.614;2023-04-24T01:14:31;10.40;99.90
52643;DHT22;38531;53.296;6.614;2023-04-24T01:16:56;10.40;99.90
52643;DHT22;38531;53.296;6.614;2023-04-24T01:19:23;10.40;99.90
52643;DHT22;38531;53.296;6.614;2023-04-24T01:21:51;10.40;99.90
52643;DHT22;38531;53.296;6.614;2023-04-24T01:24:19;10.50;99.90
52643;DHT22;38531;53.296;6.614;2023-04-24T01:26:45;10.30;99.90
52643;DHT22;38531;53.296;6.614;2023-04-24T01:29:12;10.30;99.90
52643;DHT22;38531;53.296;6.614;2023-04-24T01:31:39;10.20;99.90
52643;DHT22;38531;53.296;6.614;2023-04-24T01:34:05;10.20;99.90
52643;DHT22;38531;53.296;6.614;2023-04-24T01:36:32;10.30;99.90
52643;DHT22;38531;53.296;6.614;2023-04-24T01:38:58;10.20;99.90
52643;DHT22;38531;53.296;6.614;2023-04-24T01:41:24;10.10;99.90
52643;DHT22;38531;53.296;6.614;2023-04-24T01:43:50;10.20;99.90
52643;DHT22;38531;53.296;6.614;2023-04-24T01:46:16;10.10;99.90
52643;DHT22;38531;53.296;6.614;2023-04-24T01:48:42;10.10;99.90
52643;DHT22;38531;53.296;6.614;2023-04-24T01:51:09;10.80;99.90
52643;DHT22;38531;53.296;6.614;2023-04-24T01:53:35;10.10;99.90
52643;DHT22;38531;53.296;6.614;2023-04-24T01:56:01;10.10;99.90
52643;DHT22;38531;53.296;6.614;2023-04-24T01:58:28;10.10;99.90
52643;DHT22;38531;53.296;6.614;2023-04-24T02:00:56;10.10;99.90
52643;DHT22;38531;53.296;6.614;2023-04-24T02:03:22;10.10;99.90
52643;DHT22;38531;53.296;6.614;2023-04-24T02:05:47;10.10;99.90
52643;DHT22;38531;53.296;6.614;2023-04-24T02:08:13;10.10;99.90
52643;DHT22;38531;53.296;6.614;2023-04-24T02:10:39;10.00;99.90
52643;DHT22;38531;53.296;6.614;2023-04-24T02:13:05;10.00;99.90
52643;DHT22;38531;53.296;6.614;2023-04-24T02:15:30;10.10;99.90
52643;DHT22;38531;53.296;6.614;2023-04-24T02:17:56;10.40;99.90
52643;DHT22;38531;53.296;6.614;2023-04-24T02:20:22;10.00;99.90
52643;DHT22;38531;53.296;6.614;2023-04-24T02:22:47;10.00;99.90
52643;DHT22;38531;53.296;6.614;2023-04-24T02:25:13;10.60;99.90
52643;DHT22;38531;53.296;6.614;2023-04-24T02:27:39;10.00;99.90
52643;DHT22;38531;53.296;6.614;2023-04-24T02:30:05;10.30;99.90
52643;DHT22;38531;53.296;6.614;2023-04-24T02:32:31;10.00;99.90
52643;DHT22;38531;53.296;6.614;2023-04-24T02:34:57;10.00;99.90
52643;DHT22;38531;53.296;6.614;2023-04-24T02:37:22;10.60;99.90
52643;DHT22;38531;53.296;6.614;2023-04-24T02:39:48;9.90;99.90
52643;DHT22;38531;53.296;6.614;2023-04-24T02:42:14;10.60;99.90
52643;DHT22;38531;53.296;6.614;2023-04-24T02:44:40;10.40;99.90
52643;DHT22;38531;53.296;6.614;2023-04-24T02:47:06;9.90;99.90
52643;DHT22;38531;53.296;6.614;2023-04-24T02:49:32;9.90;99.90
52643;DHT22;38531;53.296;6.614;2023-04-24T02:51:58;10.40;99.90
52643;DHT22;38531;53.296;6.614;2023-04-24T02:54:24;10.00;99.90
52643;DHT22;38531;53.296;6.614;2023-04-24T02:56:50;10.10;99.90
52643;DHT22;38531;53.296;6.614;2023-04-24T02:59:15;9.90;99.90
52643;DHT22;38531;53.296;6.614;2023-04-24T03:01:41;9.90;99.90
52643;DHT22;38531;53.296;6.614;2023-04-24T03:04:07;9.90;99.90
52643;DHT22;38531;53.296;6.614;2023-04-24T03:06:32;9.90;99.90
52643;DHT22;38531;53.296;6.614;2023-04-24T03:09:00;10.00;99.90
52643;DHT22;38531;53.296;6.614;2023-04-24T03:11:26;10.00;99.90
52643;DHT22;38531;53.296;6.614;2023-04-24T03:13:52;10.00;99.90
52643;DHT22;38531;53.296;6.614;2023-04-24T03:16:18;10.00;99.90
52643;DHT22;38531;53.296;6.614;2023-04-24T03:18:43;10.00;99.90
52643;DHT22;38531;53.296;6.614;2023-04-24T03:21:09;10.10;99.90
52643;DHT22;38531;53.296;6.614;2023-04-24T03:23:35;10.00;99.90
52643;DHT22;38531;53.296;6.614;2023-04-24T03:26:01;10.00;99.90
52643;DHT22;38531;53.296;6.614;2023-04-24T03:28:27;10.50;99.90
52643;DHT22;38531;53.296;6.614;2023-04-24T03:30:53;10.00;99.90
52643;DHT22;38531;53.296;6.614;2023-04-24T03:33:19;10.00;99.90
52643;DHT22;38531;53.296;6.614;2023-04-24T03:35:44;10.50;99.90
52643;DHT22;38531;53.296;6.614;2023-04-24T03:38:10;10.00;99.90
52643;DHT22;38531;53.296;6.614;2023-04-24T03:40:36;10.00;99.90
52643;DHT22;38531;53.296;6.614;2023-04-24T03:43:02;10.00;99.90
52643;DHT22;38531;53.296;6.614;2023-04-24T03:45:27;10.00;99.90
52643;DHT22;38531;53.296;6.614;2023-04-24T03:47:53;10.10;99.90
52643;DHT22;38531;53.296;6.614;2023-04-24T03:50:19;10.20;99.90
52643;DHT22;38531;53.296;6.614;2023-04-24T03:52:45;10.00;99.90
52643;DHT22;38531;53.296;6.614;2023-04-24T03:55:11;10.10;99.90
52643;DHT22;38531;53.296;6.614;2023-04-24T03:57:42;10.10;99.90
52643;DHT22;38531;53.296;6.614;2023-04-24T04:00:08;10.10;99.90
52643;DHT22;38531;53.296;6.614;2023-04-24T04:02:34;10.10;99.90
52643;DHT22;38531;53.296;6.614;2023-04-24T04:05:00;10.10;99.90
52643;DHT22;38531;53.296;6.614;2023-04-24T04:07:25;10.40;99.90
52643;DHT22;38531;53.296;6.614;2023-04-24T04:09:51;10.30;99.90
52643;DHT22;38531;53.296;6.614;2023-04-24T04:12:17;10.10;99.90
52643;DHT22;38531;53.296;6.614;2023-04-24T04:14:43;10.60;99.90
52643;DHT22;38531;53.296;6.614;2023-04-24T04:17:08;10.80;99.90
52643;DHT22;38531;53.296;6.614;2023-04-24T04:19:34;10.10;99.90
52643;DHT22;38531;53.296;6.614;2023-04-24T04:22:00;10.10;99.90
52643;DHT22;38531;53.296;6.614;2023-04-24T04:24:26;10.10;99.90
52643;DHT22;38531;53.296;6.614;2023-04-24T04:26:51;10.10;99.90
52643;DHT22;38531;53.296;6.614;2023-04-24T04:29:18;10.20;99.90
52643;DHT22;38531;53.296;6.614;2023-04-24T04:31:44;10.10;99.90
52643;DHT22;38531;53.296;6.614;2023-04-24T04:34:10;10.20;99.90
52643;DHT22;38531;53.296;6.614;2023-04-24T04:36:36;10.10;99.90
52643;DHT22;38531;53.296;6.614;2023-04-24T04:39:06;10.60;99.90
52643;DHT22;38531;53.296;6.614;2023-04-24T04:41:32;9.90;99.90
52643;DHT22;38531;53.296;6.614;2023-04-24T04:44:01;10.10;99.90
52643;DHT22;38531;53.296;6.614;2023-04-24T04:46:27;10.10;99.90
52643;DHT22;38531;53.296;6.614;2023-04-24T04:48:53;10.10;99.90
52643;DHT22;38531;53.296;6.614;2023-04-24T04:51:19;10.10;99.90
52643;DHT22;38531;53.296;6.614;2023-04-24T04:53:45;10.10;99.90
52643;DHT22;38531;53.296;6.614;2023-04-24T04:56:11;10.30;99.90
52643;DHT22;38531;53.296;6.614;2023-04-24T04:58:36;10.10;99.90
52643;DHT22;38531;53.296;6.614;2023-04-24T05:01:02;10.10;99.90
52643;DHT22;38531;53.296;6.614;2023-04-24T05:03:28;10.10;99.90
52643;DHT22;38531;53.296;6.614;2023-04-24T05:05:53;10.50;99.90
52643;DHT22;38531;53.296;6.614;2023-04-24T05:08:19;10.80;99.90
52643;DHT22;38531;53.296;6.614;2023-04-24T05:10:45;10.60;99.90
52643;DHT22;38531;53.296;6.614;2023-04-24T05:13:10;10.40;99.90
52643;DHT22;38531;53.296;6.614;2023-04-24T05:15:36;10.20;99.90
52643;DHT22;38531;53.296;6.614;2023-04-24T05:18:02;10.20;99.90
52643;DHT22;38531;53.296;6.614;2023-04-24T05:20:28;10.20;99.90
52643;DHT22;38531;53.296;6.614;2023-04-24T05:22:54;10.20;99.90
52643;DHT22;38531;53.296;6.614;2023-04-24T05:25:19;10.40;99.90
52643;DHT22;38531;53.296;6.614;2023-04-24T05:27:45;10.30;99.90
52643;DHT22;38531;53.296;6.614;2023-04-24T05:30:12;10.20;99.90
52643;DHT22;38531;53.296;6.614;2023-04-24T05:32:38;10.30;99.90
52643;DHT22;38531;53.296;6.614;2023-04-24T05:35:04;10.30;99.90
52643;DHT22;38531;53.296;6.614;2023-04-24T05:37:29;10.50;99.90
52643;DHT22;38531;53.296;6.614;2023-04-24T05:39:55;10.40;99.90
52643;DHT22;38531;53.296;6.614;2023-04-24T05:42:21;10.70;99.90
52643;DHT22;38531;53.296;6.614;2023-04-24T05:44:46;10.40;99.90
52643;DHT22;38531;53.296;6.614;2023-04-24T05:47:12;10.40;99.90
52643;DHT22;38531;53.296;6.614;2023-04-24T05:49:38;10.40;99.90
52643;DHT22;38531;53.296;6.614;2023-04-24T05:52:03;10.30;99.90
52643;DHT22;38531;53.296;6.614;2023-04-24T05:54:31;10.30;99.90
52643;DHT22;38531;53.296;6.614;2023-04-24T05:56:56;10.40;99.90
52643;DHT22;38531;53.296;6.614;2023-04-24T05:59:22;10.30;99.90
52643;DHT22;38531;53.296;6.614;2023-04-24T06:01:48;10.40;99.90
52643;DHT22;38531;53.296;6.614;2023-04-24T06:04:13;10.30;99.90
52643;DHT22;38531;53.296;6.614;2023-04-24T06:06:40;10.40;99.90
52643;DHT22;38531;53.296;6.614;2023-04-24T06:09:05;10.40;99.90
52643;DHT22;38531;53.296;6.614;2023-04-24T06:11:32;10.40;99.90
52643;DHT22;38531;53.296;6.614;2023-04-24T06:13:57;10.50;99.90
52643;DHT22;38531;53.296;6.614;2023-04-24T06:16:23;10.30;99.90
52643;DHT22;38531;53.296;6.614;2023-04-24T06:18:49;10.40;99.90
52643;DHT22;38531;53.296;6.614;2023-04-24T06:21:16;10.40;99.90
52643;DHT22;38531;53.296;6.614;2023-04-24T06:23:42;10.30;99.90
52643;DHT22;38531;53.296;6.614;2023-04-24T06:26:07;10.30;99.90
52643;DHT22;38531;53.296;6.614;2023-04-24T06:28:33;10.30;99.90
52643;DHT22;38531;53.296;6.614;2023-04-24T06:30:59;10.50;99.90
52643;DHT22;38531;53.296;6.614;2023-04-24T06:33:24;10.30;99.90
52643;DHT22;38531;53.296;6.614;2023-04-24T06:35:50;10.30;99.90
52643;DHT22;38531;53.296;6.614;2023-04-24T06:38:16;10.30;99.90
52643;DHT22;38531;53.296;6.614;2023-04-24T06:40:42;10.30;99.90
52643;DHT22;38531;53.296;6.614;2023-04-24T06:43:07;10.30;99.90
52643;DHT22;38531;53.296;6.614;2023-04-24T06:45:33;10.30;99.90
52643;DHT22;38531;53.296;6.614;2023-04-24T06:47:59;10.40;99.90
52643;DHT22;38531;53.296;6.614;2023-04-24T06:50:25;10.40;99.90
52643;DHT22;38531;53.296;6.614;2023-04-24T06:52:50;10.40;99.90
52643;DHT22;38531;53.296;6.614;2023-04-24T06:55:16;10.30;99.90
52643;DHT22;38531;53.296;6.614;2023-04-24T06:57:43;10.40;99.90
52643;DHT22;38531;53.296;6.614;2023-04-24T07:00:10;10.50;99.90
52643;DHT22;38531;53.296;6.614;2023-04-24T07:02:36;10.40;99.90
52643;DHT22;38531;53.296;6.614;2023-04-24T07:05:04;10.50;99.90
52643;DHT22;38531;53.296;6.614;2023-04-24T07:07:29;10.50;99.90
52643;DHT22;38531;53.296;6.614;2023-04-24T07:09:56;10.60;99.90
52643;DHT22;38531;53.296;6.614;2023-04-24T07:12:22;10.60;99.90
52643;DHT22;38531;53.296;6.614;2023-04-24T07:14:48;10.50;99.90
52643;DHT22;38531;53.296;6.614;2023-04-24T07:17:13;10.50;99.90
52643;DHT22;38531;53.296;6.614;2023-04-24T07:19:40;10.50;99.90
52643;DHT22;38531;53.296;6.614;2023-04-24T07:22:06;10.50;99.90
52643;DHT22;38531;53.296;6.614;2023-04-24T07:24:31;10.40;99.90
52643;DHT22;38531;53.296;6.614;2023-04-24T07:26:58;10.50;99.90
52643;DHT22;38531;53.296;6.614;2023-04-24T07:29:24;10.50;99.90
52643;DHT22;38531;53.296;6.614;2023-04-24T07:31:50;10.50;99.90
52643;DHT22;38531;53.296;6.614;2023-04-24T07:34:15;10.50;99.90
52643;DHT22;38531;53.296;6.614;2023-04-24T07:36:41;10.40;99.90
52643;DHT22;38531;53.296;6.614;2023-04-24T07:39:07;10.30;99.90
52643;DHT22;38531;53.296;6.614;2023-04-24T07:41:33;10.30;99.90
52643;DHT22;38531;53.296;6.614;2023-04-24T07:43:59;10.80;99.90
52643;DHT22;38531;53.296;6.614;2023-04-24T07:46:25;10.50;99.90
52643;DHT22;38531;53.296;6.614;2023-04-24T07:48:51;10.10;99.90
52643;DHT22;38531;53.296;6.614;2023-04-24T07:51:17;10.40;99.90
52643;DHT22;38531;53.296;6.614;2023-04-24T07:53:43;10.80;99.90
52643;DHT22;38531;53.296;6.614;2023-04-24T07:56:09;10.20;99.90
52643;DHT22;38531;53.296;6.614;2023-04-24T07:58:35;10.20;99.90
52643;DHT22;38531;53.296;6.614;2023-04-24T08:01:00;10.40;99.90
52643;DHT22;38531;53.296;6.614;2023-04-24T08:03:26;10.30;99.90
52643;DHT22;38531;53.296;6.614;2023-04-24T08:05:52;10.10;99.90
52643;DHT22;38531;53.296;6.614;2023-04-24T08:08:20;10.10;99.90
52643;DHT22;38531;53.296;6.614;2023-04-24T08:10:46;10.10;99.90
52643;DHT22;38531;53.296;6.614;2023-04-24T08:13:12;10.10;99.90
52643;DHT22;38531;53.296;6.614;2023-04-24T08:15:38;10.10;99.90
52643;DHT22;38531;53.296;6.614;2023-04-24T08:18:03;10.00;99.90
52643;DHT22;38531;53.296;6.614;2023-04-24T08:20:29;10.10;99.90
52643;DHT22;38531;53.296;6.614;2023-04-24T08:22:55;10.30;99.90
52643;DHT22;38531;53.296;6.614;2023-04-24T08:25:22;9.80;99.90
52643;DHT22;38531;53.296;6.614;2023-04-24T08:27:48;10.20;99.90
52643;DHT22;38531;53.296;6.614;2023-04-24T08:30:14;10.20;99.90
52643;DHT22;38531;53.296;6.614;2023-04-24T08:32:40;10.20;99.90
52643;DHT22;38531;53.296;6.614;2023-04-24T08:35:07;10.30;99.90
52643;DHT22;38531;53.296;6.614;2023-04-24T08:37:34;10.20;99.90
52643;DHT22;38531;53.296;6.614;2023-04-24T08:40:02;10.10;99.90
52643;DHT22;38531;53.296;6.614;2023-04-24T08:42:32;10.20;99.90
52643;DHT22;38531;53.296;6.614;2023-04-24T08:44:58;10.00;99.90
52643;DHT22;38531;53.296;6.614;2023-04-24T08:47:25;10.90;99.90
52643;DHT22;38531;53.296;6.614;2023-04-24T08:49:52;10.10;99.90
52643;DHT22;38531;53.296;6.614;2023-04-24T08:52:19;10.00;99.90
52643;DHT22;38531;53.296;6.614;2023-04-24T08:54:47;10.00;99.90
52643;DHT22;38531;53.296;6.614;2023-04-24T08:57:14;10.00;99.90
52643;DHT22;38531;53.296;6.614;2023-04-24T08:59:40;9.90;99.90
52643;DHT22;38531;53.296;6.614;2023-04-24T09:02:10;9.80;99.90
52643;DHT22;38531;53.296;6.614;2023-04-24T09:04:36;9.80;99.90
52643;DHT22;38531;53.296;6.614;2023-04-24T09:07:03;10.60;99.90
52643;DHT22;38531;53.296;6.614;2023-04-24T09:09:30;9.80;99.90
52643;DHT22;38531;53.296;6.614;2023-04-24T09:11:58;9.80;99.90
52643;DHT22;38531;53.296;6.614;2023-04-24T09:14:24;9.70;99.90
52643;DHT22;38531;53.296;6.614;2023-04-24T09:16:50;9.70;99.90
52643;DHT22;38531;53.296;6.614;2023-04-24T09:19:16;9.60;99.90
52643;DHT22;38531;53.296;6.614;2023-04-24T09:21:45;9.60;99.90
52643;DHT22;38531;53.296;6.614;2023-04-24T09:24:20;10.40;99.90
52643;DHT22;38531;53.296;6.614;2023-04-24T09:26:48;9.50;99.90
52643;DHT22;38531;53.296;6.614;2023-04-24T09:29:16;9.60;99.90
52643;DHT22;38531;53.296;6.614;2023-04-24T09:31:43;9.90;99.90
52643;DHT22;38531;53.296;6.614;2023-04-24T09:34:08;9.60;99.90
52643;DHT22;38531;53.296;6.614;2023-04-24T09:36:36;9.90;99.90
52643;DHT22;38531;53.296;6.614;2023-04-24T09:39:10;9.70;99.90
52643;DHT22;38531;53.296;6.614;2023-04-24T09:41:48;9.60;99.90
52643;DHT22;38531;53.296;6.614;2023-04-24T09:44:18;9.60;99.90
52643;DHT22;38531;53.296;6.614;2023-04-24T09:46:53;9.70;99.90
52643;DHT22;38531;53.296;6.614;2023-04-24T09:49:31;9.70;99.90
52643;DHT22;38531;53.296;6.614;2023-04-24T09:52:09;9.70;99.90
52643;DHT22;38531;53.296;6.614;2023-04-24T09:54:35;9.70;99.90
52643;DHT22;38531;53.296;6.614;2023-04-24T09:57:07;9.70;99.90
52643;DHT22;38531;53.296;6.614;2023-04-24T09:59:42;9.60;99.90
52643;DHT22;38531;53.296;6.614;2023-04-24T10:02:20;10.40;99.90
52643;DHT22;38531;53.296;6.614;2023-04-24T10:04:56;9.70;99.90
52643;DHT22;38531;53.296;6.614;2023-04-24T10:07:27;10.00;99.90
52643;DHT22;38531;53.296;6.614;2023-04-24T10:09:54;9.60;99.90
52643;DHT22;38531;53.296;6.614;2023-04-24T10:12:20;9.70;99.90
52643;DHT22;38531;53.296;6.614;2023-04-24T10:14:46;9.80;99.90
52643;DHT22;38531;53.296;6.614;2023-04-24T10:17:12;9.70;99.90
52643;DHT22;38531;53.296;6.614;2023-04-24T10:19:40;9.90;99.90
52643;DHT22;38531;53.296;6.614;2023-04-24T10:22:07;9.80;99.90
52643;DHT22;38531;53.296;6.614;2023-04-24T10:24:33;10.00;99.90
52643;DHT22;38531;53.296;6.614;2023-04-24T10:27:02;10.30;99.90
52643;DHT22;38531;53.296;6.614;2023-04-24T10:29:29;10.40;99.90
52643;DHT22;38531;53.296;6.614;2023-04-24T10:31:57;10.40;99.90
52643;DHT22;38531;53.296;6.614;2023-04-24T10:34:23;10.40;99.90
52643;DHT22;38531;53.296;6.614;2023-04-24T10:36:52;10.50;99.90
52643;DHT22;38531;53.296;6.614;2023-04-24T10:39:25;10.50;99.90
52643;DHT22;38531;53.296;6.614;2023-04-24T10:41:54;10.40;99.90
52643;DHT22;38531;53.296;6.614;2023-04-24T10:44:25;10.50;99.90
52643;DHT22;38531;53.296;6.614;2023-04-24T10:47:00;10.70;99.90
52643;DHT22;38531;53.296;6.614;2023-04-24T10:49:31;10.90;99.90
52643;DHT22;38531;53.296;6.614;2023-04-24T10:52:01;10.90;99.90
52643;DHT22;38531;53.296;6.614;2023-04-24T10:54:45;10.90;99.90
52643;DHT22;38531;53.296;6.614;2023-04-24T10:59:47;10.90;99.90
52643;DHT22;38531;53.296;6.614;2023-04-24T11:02:16;10.90;99.90
52643;DHT22;38531;53.296;6.614;2023-04-24T11:04:43;10.90;99.90
52643;DHT22;38531;53.296;6.614;2023-04-24T11:07:10;11.00;99.90
52643;DHT22;38531;53.296;6.614;2023-04-24T11:09:38;11.00;99.90
52643;DHT22;38531;53.296;6.614;2023-04-24T11:12:11;11.00;99.90
52643;DHT22;38531;53.296;6.614;2023-04-24T11:17:33;11.20;99.90
52643;DHT22;38531;53.296;6.614;2023-04-24T11:20:03;11.30;99.90
52643;DHT22;38531;53.296;6.614;2023-04-24T11:22:33;11.40;99.90
52643;DHT22;38531;53.296;6.614;2023-04-24T11:25:01;11.30;99.90
52643;DHT22;38531;53.296;6.614;2023-04-24T11:27:39;11.40;99.90
52643;DHT22;38531;53.296;6.614;2023-04-24T11:30:05;11.30;99.90
52643;DHT22;38531;53.296;6.614;2023-04-24T11:32:42;11.40;99.90
52643;DHT22;38531;53.296;6.614;2023-04-24T11:35:16;11.50;99.90
52643;DHT22;38531;53.296;6.614;2023-04-24T11:37:47;11.70;99.90
52643;DHT22;38531;53.296;6.614;2023-04-24T11:40:16;11.70;99.90
52643;DHT22;38531;53.296;6.614;2023-04-24T11:42:43;11.60;99.90
52643;DHT22;38531;53.296;6.614;2023-04-24T11:45:11;11.70;99.90
52643;DHT22;38531;53.296;6.614;2023-04-24T11:47:38;11.70;99.90
52643;DHT22;38531;53.296;6.614;2023-04-24T11:50:07;11.60;99.90
52643;DHT22;38531;53.296;6.614;2023-04-24T11:52:36;11.30;99.90
52643;DHT22;38531;53.296;6.614;2023-04-24T11:55:02;11.10;99.90
52643;DHT22;38531;53.296;6.614;2023-04-24T11:57:29;10.90;99.90
52643;DHT22;38531;53.296;6.614;2023-04-24T12:00:05;10.90;99.90
52643;DHT22;38531;53.296;6.614;2023-04-24T12:02:34;10.80;99.90
52643;DHT22;38531;53.296;6.614;2023-04-24T12:04:59;10.90;99.90
52643;DHT22;38531;53.296;6.614;2023-04-24T12:07:25;10.90;99.90
52643;DHT22;38531;53.296;6.614;2023-04-24T12:09:58;10.70;99.90
52643;DHT22;38531;53.296;6.614;2023-04-24T12:12:28;10.70;99.90
52643;DHT22;38531;53.296;6.614;2023-04-24T12:14:57;10.70;99.90
52643;DHT22;38531;53.296;6.614;2023-04-24T12:17:31;10.50;99.90
52643;DHT22;38531;53.296;6.614;2023-04-24T12:20:02;10.40;99.90
52643;DHT22;38531;53.296;6.614;2023-04-24T12:22:49;10.30;99.90
52643;DHT22;38531;53.296;6.614;2023-04-24T12:25:17;10.10;99.90
52643;DHT22;38531;53.296;6.614;2023-04-24T12:27:44;10.10;99.90
52643;DHT22;38531;53.296;6.614;2023-04-24T12:30:13;10.10;99.90
52643;DHT22;38531;53.296;6.614;2023-04-24T12:32:59;10.00;99.90
52643;DHT22;38531;53.296;6.614;2023-04-24T12:35:29;10.00;99.90
52643;DHT22;38531;53.296;6.614;2023-04-24T12:38:08;10.00;99.90
52643;DHT22;38531;53.296;6.614;2023-04-24T12:40:34;10.10;99.90
52643;DHT22;38531;53.296;6.614;2023-04-24T12:43:00;10.20;99.90
52643;DHT22;38531;53.296;6.614;2023-04-24T12:45:25;10.40;99.90
52643;DHT22;38531;53.296;6.614;2023-04-24T12:47:53;10.40;99.90
52643;DHT22;38531;53.296;6.614;2023-04-24T12:50:19;10.60;99.90
52643;DHT22;38531;53.296;6.614;2023-04-24T12:52:44;10.50;99.90
52643;DHT22;38531;53.296;6.614;2023-04-24T12:55:10;10.80;99.90
52643;DHT22;38531;53.296;6.614;2023-04-24T12:57:38;10.60;99.90
52643;DHT22;38531;53.296;6.614;2023-04-24T13:00:05;10.70;99.90
52643;DHT22;38531;53.296;6.614;2023-04-24T13:02:32;10.80;99.90
52643;DHT22;38531;53.296;6.614;2023-04-24T13:04:59;10.80;99.90
52643;DHT22;38531;53.296;6.614;2023-04-24T13:07:25;10.70;99.90
52643;DHT22;38531;53.296;6.614;2023-04-24T13:09:52;10.70;99.90
52643;DHT22;38531;53.296;6.614;2023-04-24T13:12:19;10.80;99.90
52643;DHT22;38531;53.296;6.614;2023-04-24T13:14:45;10.50;99.90
52643;DHT22;38531;53.296;6.614;2023-04-24T13:17:11;10.40;99.90
52643;DHT22;38531;53.296;6.614;2023-04-24T13:19:42;10.50;99.90
52643;DHT22;38531;53.296;6.614;2023-04-24T13:22:10;10.50;99.90
52643;DHT22;38531;53.296;6.614;2023-04-24T13:24:36;10.30;99.90
52643;DHT22;38531;53.296;6.614;2023-04-24T13:27:03;10.30;99.90
52643;DHT22;38531;53.296;6.614;2023-04-24T13:29:29;10.30;99.90
52643;DHT22;38531;53.296;6.614;2023-04-24T13:31:55;10.30;99.90
52643;DHT22;38531;53.296;6.614;2023-04-24T13:34:25;10.10;99.90
52643;DHT22;38531;53.296;6.614;2023-04-24T13:36:56;10.20;99.90
52643;DHT22;38531;53.296;6.614;2023-04-24T13:39:22;9.80;99.90
52643;DHT22;38531;53.296;6.614;2023-04-24T13:41:49;10.10;99.90
52643;DHT22;38531;53.296;6.614;2023-04-24T13:44:16;10.20;99.90
52643;DHT22;38531;53.296;6.614;2023-04-24T13:46:43;10.30;99.90
52643;DHT22;38531;53.296;6.614;2023-04-24T13:49:10;10.30;99.90
52643;DHT22;38531;53.296;6.614;2023-04-24T13:51:36;10.50;99.90
52643;DHT22;38531;53.296;6.614;2023-04-24T13:54:02;10.60;99.90
52643;DHT22;38531;53.296;6.614;2023-04-24T13:56:28;10.70;99.90
52643;DHT22;38531;53.296;6.614;2023-04-24T13:58:53;10.70;99.90
52643;DHT22;38531;53.296;6.614;2023-04-24T14:01:20;10.60;99.90
52643;DHT22;38531;53.296;6.614;2023-04-24T14:03:52;10.50;99.90
52643;DHT22;38531;53.296;6.614;2023-04-24T14:06:21;10.00;99.90
52643;DHT22;38531;53.296;6.614;2023-04-24T14:08:48;10.30;99.90
52643;DHT22;38531;53.296;6.614;2023-04-24T14:11:14;10.20;99.90
52643;DHT22;38531;53.296;6.614;2023-04-24T14:13:43;10.10;99.90
52643;DHT22;38531;53.296;6.614;2023-04-24T14:16:10;9.90;99.90
52643;DHT22;38531;53.296;6.614;2023-04-24T14:18:36;9.90;99.90
52643;DHT22;38531;53.296;6.614;2023-04-24T14:21:02;10.00;99.90
52643;DHT22;38531;53.296;6.614;2023-04-24T14:23:28;10.00;99.90
52643;DHT22;38531;53.296;6.614;2023-04-24T14:25:54;10.00;99.90
52643;DHT22;38531;53.296;6.614;2023-04-24T14:28:20;10.00;99.90
52643;DHT22;38531;53.296;6.614;2023-04-24T14:30:47;10.10;99.90
52643;DHT22;38531;53.296;6.614;2023-04-24T14:33:13;10.10;99.90
52643;DHT22;38531;53.296;6.614;2023-04-24T14:35:40;10.00;99.90
52643;DHT22;38531;53.296;6.614;2023-04-24T14:38:07;10.10;99.90
52643;DHT22;38531;53.296;6.614;2023-04-24T14:40:33;10.00;99.90
52643;DHT22;38531;53.296;6.614;2023-04-24T14:43:01;9.90;99.90
52643;DHT22;38531;53.296;6.614;2023-04-24T14:45:27;9.90;99.90
52643;DHT22;38531;53.296;6.614;2023-04-24T14:47:57;9.80;99.90
52643;DHT22;38531;53.296;6.614;2023-04-24T14:56:50;9.70;99.90
52643;DHT22;38531;53.296;6.614;2023-04-24T14:59:16;9.60;99.90
52643;DHT22;38531;53.296;6.614;2023-04-24T15:01:42;9.60;99.90
52643;DHT22;38531;53.296;6.614;2023-04-24T15:04:08;9.60;99.90
52643;DHT22;38531;53.296;6.614;2023-04-24T15:06:33;9.60;99.90
52643;DHT22;38531;53.296;6.614;2023-04-24T15:08:59;9.50;99.90
52643;DHT22;38531;53.296;6.614;2023-04-24T15:11:25;9.50;99.90
52643;DHT22;38531;53.296;6.614;2023-04-24T15:13:51;9.50;99.90
52643;DHT22;38531;53.296;6.614;2023-04-24T15:16:17;10.10;99.90
52643;DHT22;38531;53.296;6.614;2023-04-24T15:18:42;9.40;99.90
52643;DHT22;38531;53.296;6.614;2023-04-24T15:21:08;9.40;99.90
52643;DHT22;38531;53.296;6.614;2023-04-24T15:23:34;9.30;99.90
52643;DHT22;38531;53.296;6.614;2023-04-24T15:26:00;9.30;99.90
52643;DHT22;38531;53.296;6.614;2023-04-24T15:28:26;9.30;99.90
52643;DHT22;38531;53.296;6.614;2023-04-24T15:30:52;9.30;99.90
52643;DHT22;38531;53.296;6.614;2023-04-24T15:33:18;8.90;99.90
52643;DHT22;38531;53.296;6.614;2023-04-24T15:35:43;9.30;99.90
52643;DHT22;38531;53.296;6.614;2023-04-24T15:38:09;9.30;99.90
52643;DHT22;38531;53.296;6.614;2023-04-24T15:40:35;9.40;99.90
52643;DHT22;38531;53.296;6.614;2023-04-24T15:43:00;9.50;99.90